sensor_id;sensor_type;location;lat;lon;timestamp;pressure;altitude;pressure_sealevel;temperature
64916;BMP280;51427;-27.442;153.014;2023-04-25T00:00:35;102528.22;;;23.52
64916;BMP280;51427;-27.442;153.014;2023-04-25T00:03:03;102522.00;;;23.44
64916;BMP280;51427;-27.442;153.014;2023-04-25T00:05:32;102517.63;;;23.33
64916;BMP280;51427;-27.442;153.014;2023-04-25T00:07:59;102520.56;;;23.27
64916;BMP280;51427;-27.442;153.014;2023-04-25T00:10:27;102522.94;;;23.30
64916;BMP280;51427;-27.442;153.014;2023-04-25T00:12:54;102522.72;;;23.21
64916;BMP280;51427;-27.442;153.014;2023-04-25T00:15:22;102531.09;;;23.23
64916;BMP280;51427;-27.442;153.014;2023-04-25T00:17:51;102540.63;;;22.82
64916;BMP280;51427;-27.442;153.014;2023-04-25T00:20:19;102558.44;;;22.58
64916;BMP280;51427;-27.442;153.014;2023-04-25T00:22:47;102571.94;;;22.72
64916;BMP280;51427;-27.442;153.014;2023-04-25T00:25:14;102553.50;;;22.28
64916;BMP280;51427;-27.442;153.014;2023-04-25T00:27:42;102567.22;;;21.58
64916;BMP280;51427;-27.442;153.014;2023-04-25T00:30:10;102560.28;;;22.02
64916;BMP280;51427;-27.442;153.014;2023-04-25T00:32:38;102547.88;;;22.10
64916;BMP280;51427;-27.442;153.014;2023-04-25T00:35:06;102553.34;;;22.04
64916;BMP280;51427;-27.442;153.014;2023-04-25T00:37:33;102544.34;;;21.98
64916;BMP280;51427;-27.442;153.014;2023-04-25T00:40:01;102551.44;;;22.86
64916;BMP280;51427;-27.442;153.014;2023-04-25T00:42:29;102530.69;;;23.17
64916;BMP280;51427;-27.442;153.014;2023-04-25T00:44:58;102536.81;;;23.26
64916;BMP280;51427;-27.442;153.014;2023-04-25T00:47:26;102542.69;;;22.90
64916;BMP280;51427;-27.442;153.014;2023-04-25T00:49:53;102530.38;;;23.09
64916;BMP280;51427;-27.442;153.014;2023-04-25T00:52:21;102541.81;;;23.16
64916;BMP280;51427;-27.442;153.014;2023-04-25T00:54:49;102537.84;;;22.99
64916;BMP280;51427;-27.442;153.014;2023-04-25T00:57:16;102528.94;;;23.17
64916;BMP280;51427;-27.442;153.014;2023-04-25T00:59:45;102528.03;;;23.06
64916;BMP280;51427;-27.442;153.014;2023-04-25T01:02:13;102520.78;;;23.12
64916;BMP280;51427;-27.442;153.014;2023-04-25T01:04:41;102523.53;;;23.21
64916;BMP280;51427;-27.442;153.014;2023-04-25T01:07:10;102514.22;;;24.06
64916;BMP280;51427;-27.442;153.014;2023-04-25T01:09:37;102506.88;;;24.82
64916;BMP280;51427;-27.442;153.014;2023-04-25T01:12:05;102493.75;;;23.70
64916;BMP280;51427;-27.442;153.014;2023-04-25T01:14:33;102495.59;;;24.04
64916;BMP280;51427;-27.442;153.014;2023-04-25T01:17:01;102495.09;;;23.75
64916;BMP280;51427;-27.442;153.014;2023-04-25T01:19:29;102490.31;;;23.46
64916;BMP280;51427;-27.442;153.014;2023-04-25T01:21:57;102492.88;;;22.97
64916;BMP280;51427;-27.442;153.014;2023-04-25T01:24:25;102478.94;;;23.63
64916;BMP280;51427;-27.442;153.014;2023-04-25T01:26:54;102484.41;;;23.21
64916;BMP280;51427;-27.442;153.014;2023-04-25T01:29:23;102472.84;;;24.12
64916;BMP280;51427;-27.442;153.014;2023-04-25T01:31:52;102466.00;;;24.12
64916;BMP280;51427;-27.442;153.014;2023-04-25T01:34:20;102456.81;;;23.86
64916;BMP280;51427;-27.442;153.014;2023-04-25T01:36:50;102450.25;;;23.34
64916;BMP280;51427;-27.442;153.014;2023-04-25T01:39:18;102455.84;;;23.39
64916;BMP280;51427;-27.442;153.014;2023-04-25T01:41:46;102443.44;;;22.98
64916;BMP280;51427;-27.442;153.014;2023-04-25T01:44:15;102452.13;;;22.95
64916;BMP280;51427;-27.442;153.014;2023-04-25T01:46:43;102446.88;;;22.72
64916;BMP280;51427;-27.442;153.014;2023-04-25T01:49:10;102429.53;;;23.26
64916;BMP280;51427;-27.442;153.014;2023-04-25T01:51:38;102426.16;;;24.20
64916;BMP280;51427;-27.442;153.014;2023-04-25T01:54:06;102432.03;;;23.87
64916;BMP280;51427;-27.442;153.014;2023-04-25T01:56:37;102419.31;;;23.62
64916;BMP280;51427;-27.442;153.014;2023-04-25T01:59:06;102419.94;;;22.93
64916;BMP280;51427;-27.442;153.014;2023-04-25T02:01:33;102427.91;;;22.88
64916;BMP280;51427;-27.442;153.014;2023-04-25T02:04:01;102422.16;;;22.85
64916;BMP280;51427;-27.442;153.014;2023-04-25T02:06:29;102435.25;;;22.03
64916;BMP280;51427;-27.442;153.014;2023-04-25T02:08:57;102424.69;;;21.69
64916;BMP280;51427;-27.442;153.014;2023-04-25T02:11:25;102415.22;;;21.71
64916;BMP280;51427;-27.442;153.014;2023-04-25T02:13:52;102402.78;;;21.93
64916;BMP280;51427;-27.442;153.014;2023-04-25T02:16:21;102396.19;;;22.41
64916;BMP280;51427;-27.442;153.014;2023-04-25T02:18:48;102381.31;;;23.10
64916;BMP280;51427;-27.442;153.014;2023-04-25T02:21:19;102378.16;;;22.57
64916;BMP280;51427;-27.442;153.014;2023-04-25T02:23:46;102361.41;;;23.02
64916;BMP280;51427;-27.442;153.014;2023-04-25T02:26:16;102358.41;;;23.56
64916;BMP280;51427;-27.442;153.014;2023-04-25T02:28:43;102354.84;;;23.82
64916;BMP280;51427;-27.442;153.014;2023-04-25T02:31:11;102355.34;;;23.51
64916;BMP280;51427;-27.442;153.014;2023-04-25T02:33:38;102356.44;;;24.06
64916;BMP280;51427;-27.442;153.014;2023-04-25T02:36:06;102345.53;;;23.22
64916;BMP280;51427;-27.442;153.014;2023-04-25T02:38:34;102330.50;;;24.66
64916;BMP280;51427;-27.442;153.014;2023-04-25T02:41:02;102322.41;;;24.27
64916;BMP280;51427;-27.442;153.014;2023-04-25T02:43:29;102327.59;;;24.60
64916;BMP280;51427;-27.442;153.014;2023-04-25T02:45:57;102306.31;;;25.03
64916;BMP280;51427;-27.442;153.014;2023-04-25T02:48:25;102300.91;;;24.19
64916;BMP280;51427;-27.442;153.014;2023-04-25T02:50:52;102310.09;;;23.41
64916;BMP280;51427;-27.442;153.014;2023-04-25T02:53:20;102307.13;;;23.47
64916;BMP280;51427;-27.442;153.014;2023-04-25T02:55:47;102293.97;;;23.40
64916;BMP280;51427;-27.442;153.014;2023-04-25T02:58:15;102291.84;;;23.58
64916;BMP280;51427;-27.442;153.014;2023-04-25T03:00:46;102294.81;;;23.28
64916;BMP280;51427;-27.442;153.014;2023-04-25T03:03:15;102288.31;;;23.48
64916;BMP280;51427;-27.442;153.014;2023-04-25T03:05:44;102290.81;;;23.60
64916;BMP280;51427;-27.442;153.014;2023-04-25T03:08:13;102287.00;;;23.42
64916;BMP280;51427;-27.442;153.014;2023-04-25T03:10:41;102288.31;;;23.24
64916;BMP280;51427;-27.442;153.014;2023-04-25T03:13:08;102288.25;;;23.14
64916;BMP280;51427;-27.442;153.014;2023-04-25T03:15:37;102297.63;;;22.65
64916;BMP280;51427;-27.442;153.014;2023-04-25T03:18:05;102296.59;;;22.68
64916;BMP280;51427;-27.442;153.014;2023-04-25T03:20:33;102302.50;;;22.68
64916;BMP280;51427;-27.442;153.014;2023-04-25T03:23:01;102299.66;;;22.35
64916;BMP280;51427;-27.442;153.014;2023-04-25T03:25:28;102300.88;;;22.67
64916;BMP280;51427;-27.442;153.014;2023-04-25T03:27:56;102294.94;;;22.79
64916;BMP280;51427;-27.442;153.014;2023-04-25T03:30:23;102281.44;;;22.89
64916;BMP280;51427;-27.442;153.014;2023-04-25T03:32:51;102274.16;;;23.08
64916;BMP280;51427;-27.442;153.014;2023-04-25T03:35:19;102266.78;;;23.39
64916;BMP280;51427;-27.442;153.014;2023-04-25T03:37:47;102271.22;;;23.02
64916;BMP280;51427;-27.442;153.014;2023-04-25T03:40:15;102265.50;;;22.98
64916;BMP280;51427;-27.442;153.014;2023-04-25T03:42:42;102270.53;;;22.75
64916;BMP280;51427;-27.442;153.014;2023-04-25T03:45:10;102266.31;;;22.86
64916;BMP280;51427;-27.442;153.014;2023-04-25T03:47:37;102270.41;;;22.89
64916;BMP280;51427;-27.442;153.014;2023-04-25T03:50:05;102269.28;;;22.80
64916;BMP280;51427;-27.442;153.014;2023-04-25T03:52:33;102257.38;;;22.93
64916;BMP280;51427;-27.442;153.014;2023-04-25T03:55:01;102258.75;;;22.85
64916;BMP280;51427;-27.442;153.014;2023-04-25T03:57:28;102257.16;;;22.84
64916;BMP280;51427;-27.442;153.014;2023-04-25T03:59:56;102258.63;;;23.11
64916;BMP280;51427;-27.442;153.014;2023-04-25T04:02:23;102261.63;;;22.93
64916;BMP280;51427;-27.442;153.014;2023-04-25T04:04:51;102248.97;;;23.61
64916;BMP280;51427;-27.442;153.014;2023-04-25T04:07:19;102250.78;;;23.48
64916;BMP280;51427;-27.442;153.014;2023-04-25T04:09:46;102245.56;;;23.50
64916;BMP280;51427;-27.442;153.014;2023-04-25T04:12:14;102239.78;;;23.82
64916;BMP280;51427;-27.442;153.014;2023-04-25T04:14:41;102241.78;;;23.55
64916;BMP280;51427;-27.442;153.014;2023-04-25T04:17:09;102244.63;;;23.40
64916;BMP280;51427;-27.442;153.014;2023-04-25T04:19:37;102243.56;;;23.19
64916;BMP280;51427;-27.442;153.014;2023-04-25T04:22:04;102247.22;;;22.92
64916;BMP280;51427;-27.442;153.014;2023-04-25T04:24:32;102252.66;;;23.00
64916;BMP280;51427;-27.442;153.014;2023-04-25T04:26:59;102257.22;;;22.34
64916;BMP280;51427;-27.442;153.014;2023-04-25T04:29:27;102258.63;;;22.01
64916;BMP280;51427;-27.442;153.014;2023-04-25T04:31:55;102253.31;;;22.41
64916;BMP280;51427;-27.442;153.014;2023-04-25T04:34:22;102243.53;;;22.35
64916;BMP280;51427;-27.442;153.014;2023-04-25T04:36:51;102249.47;;;22.36
64916;BMP280;51427;-27.442;153.014;2023-04-25T04:39:19;102255.34;;;22.73
64916;BMP280;51427;-27.442;153.014;2023-04-25T04:41:47;102257.38;;;22.93
64916;BMP280;51427;-27.442;153.014;2023-04-25T04:44:15;102259.94;;;23.17
64916;BMP280;51427;-27.442;153.014;2023-04-25T04:46:42;102242.22;;;23.26
64916;BMP280;51427;-27.442;153.014;2023-04-25T04:49:12;102249.94;;;23.14
64916;BMP280;51427;-27.442;153.014;2023-04-25T04:51:43;102247.59;;;23.11
64916;BMP280;51427;-27.442;153.014;2023-04-25T04:54:13;102249.34;;;23.10
64916;BMP280;51427;-27.442;153.014;2023-04-25T04:56:41;102235.78;;;23.20
64916;BMP280;51427;-27.442;153.014;2023-04-25T04:59:08;102246.59;;;23.24
64916;BMP280;51427;-27.442;153.014;2023-04-25T05:01:37;102237.00;;;23.27
64916;BMP280;51427;-27.442;153.014;2023-04-25T05:04:05;102253.44;;;23.00
64916;BMP280;51427;-27.442;153.014;2023-04-25T05:06:33;102231.06;;;23.04
64916;BMP280;51427;-27.442;153.014;2023-04-25T05:09:00;102243.94;;;23.02
64916;BMP280;51427;-27.442;153.014;2023-04-25T05:11:28;102239.28;;;23.20
64916;BMP280;51427;-27.442;153.014;2023-04-25T05:13:55;102238.22;;;22.99
64916;BMP280;51427;-27.442;153.014;2023-04-25T05:16:23;102232.44;;;23.20
64916;BMP280;51427;-27.442;153.014;2023-04-25T05:18:51;102238.19;;;23.11
64916;BMP280;51427;-27.442;153.014;2023-04-25T05:21:18;102231.22;;;23.13
64916;BMP280;51427;-27.442;153.014;2023-04-25T05:23:46;102240.47;;;23.26
64916;BMP280;51427;-27.442;153.014;2023-04-25T05:26:13;102246.50;;;23.25
64916;BMP280;51427;-27.442;153.014;2023-04-25T05:28:42;102245.59;;;22.91
64916;BMP280;51427;-27.442;153.014;2023-04-25T05:31:12;102243.06;;;22.78
64916;BMP280;51427;-27.442;153.014;2023-04-25T05:33:40;102241.13;;;22.70
64916;BMP280;51427;-27.442;153.014;2023-04-25T05:36:08;102248.41;;;22.63
64916;BMP280;51427;-27.442;153.014;2023-04-25T05:38:36;102245.72;;;22.77
64916;BMP280;51427;-27.442;153.014;2023-04-25T05:41:03;102244.94;;;22.64
64916;BMP280;51427;-27.442;153.014;2023-04-25T05:43:31;102244.94;;;22.64
64916;BMP280;51427;-27.442;153.014;2023-04-25T05:45:59;102250.03;;;22.76
64916;BMP280;51427;-27.442;153.014;2023-04-25T05:48:26;102258.19;;;22.69
64916;BMP280;51427;-27.442;153.014;2023-04-25T05:50:54;102250.97;;;22.38
64916;BMP280;51427;-27.442;153.014;2023-04-25T05:53:22;102268.59;;;22.17
64916;BMP280;51427;-27.442;153.014;2023-04-25T05:55:49;102275.88;;;21.72
64916;BMP280;51427;-27.442;153.014;2023-04-25T05:58:17;102284.38;;;21.32
64916;BMP280;51427;-27.442;153.014;2023-04-25T06:00:44;102302.69;;;21.11
64916;BMP280;51427;-27.442;153.014;2023-04-25T06:03:13;102292.25;;;21.15
64916;BMP280;51427;-27.442;153.014;2023-04-25T06:05:42;102294.81;;;21.01
64916;BMP280;51427;-27.442;153.014;2023-04-25T06:08:10;102290.66;;;20.87
64916;BMP280;51427;-27.442;153.014;2023-04-25T06:10:38;102293.94;;;20.75
64916;BMP280;51427;-27.442;153.014;2023-04-25T06:13:06;102281.81;;;20.92
64916;BMP280;51427;-27.442;153.014;2023-04-25T06:15:33;102283.78;;;21.15
64916;BMP280;51427;-27.442;153.014;2023-04-25T06:18:01;102281.59;;;21.23
64916;BMP280;51427;-27.442;153.014;2023-04-25T06:20:29;102286.13;;;21.32
64916;BMP280;51427;-27.442;153.014;2023-04-25T06:22:57;102285.50;;;21.14
64916;BMP280;51427;-27.442;153.014;2023-04-25T06:25:24;102283.91;;;21.39
64916;BMP280;51427;-27.442;153.014;2023-04-25T06:27:52;102286.31;;;21.29
64916;BMP280;51427;-27.442;153.014;2023-04-25T06:30:20;102273.91;;;21.36
64916;BMP280;51427;-27.442;153.014;2023-04-25T06:32:52;102280.31;;;21.16
64916;BMP280;51427;-27.442;153.014;2023-04-25T06:35:20;102277.41;;;21.22
64916;BMP280;51427;-27.442;153.014;2023-04-25T06:37:47;102280.13;;;21.59
64916;BMP280;51427;-27.442;153.014;2023-04-25T06:40:15;102282.63;;;21.33
64916;BMP280;51427;-27.442;153.014;2023-04-25T06:42:44;102295.06;;;21.11
64916;BMP280;51427;-27.442;153.014;2023-04-25T06:45:11;102290.22;;;21.20
64916;BMP280;51427;-27.442;153.014;2023-04-25T06:47:39;102291.94;;;21.34
64916;BMP280;51427;-27.442;153.014;2023-04-25T06:50:07;102280.53;;;21.65
64916;BMP280;51427;-27.442;153.014;2023-04-25T06:52:35;102284.00;;;21.52
64916;BMP280;51427;-27.442;153.014;2023-04-25T06:55:02;102290.09;;;21.49
64916;BMP280;51427;-27.442;153.014;2023-04-25T06:57:31;102286.84;;;21.34
64916;BMP280;51427;-27.442;153.014;2023-04-25T06:59:59;102290.44;;;21.43
64916;BMP280;51427;-27.442;153.014;2023-04-25T07:02:26;102293.34;;;21.37
64916;BMP280;51427;-27.442;153.014;2023-04-25T07:04:54;102290.31;;;21.19
64916;BMP280;51427;-27.442;153.014;2023-04-25T07:07:26;102289.66;;;21.29
64916;BMP280;51427;-27.442;153.014;2023-04-25T07:09:54;102285.41;;;21.16
64916;BMP280;51427;-27.442;153.014;2023-04-25T07:12:21;102288.94;;;21.27
64916;BMP280;51427;-27.442;153.014;2023-04-25T07:14:49;102301.09;;;20.96
64916;BMP280;51427;-27.442;153.014;2023-04-25T07:17:16;102298.56;;;20.96
64916;BMP280;51427;-27.442;153.014;2023-04-25T07:19:44;102314.16;;;21.18
64916;BMP280;51427;-27.442;153.014;2023-04-25T07:22:12;102312.00;;;20.98
64916;BMP280;51427;-27.442;153.014;2023-04-25T07:24:40;102314.88;;;21.20
64916;BMP280;51427;-27.442;153.014;2023-04-25T07:27:07;102318.16;;;21.08
64916;BMP280;51427;-27.442;153.014;2023-04-25T07:29:35;102308.75;;;20.96
64916;BMP280;51427;-27.442;153.014;2023-04-25T07:32:04;102326.38;;;21.13
64916;BMP280;51427;-27.442;153.014;2023-04-25T07:34:31;102326.78;;;21.19
64916;BMP280;51427;-27.442;153.014;2023-04-25T07:37:00;102335.75;;;21.38
64916;BMP280;51427;-27.442;153.014;2023-04-25T07:39:27;102345.44;;;21.06
64916;BMP280;51427;-27.442;153.014;2023-04-25T07:41:55;102347.44;;;21.01
64916;BMP280;51427;-27.442;153.014;2023-04-25T07:44:25;102349.09;;;21.02
64916;BMP280;51427;-27.442;153.014;2023-04-25T07:46:53;102353.09;;;20.92
64916;BMP280;51427;-27.442;153.014;2023-04-25T07:49:20;102358.72;;;20.97
64916;BMP280;51427;-27.442;153.014;2023-04-25T07:51:48;102362.38;;;20.79
64916;BMP280;51427;-27.442;153.014;2023-04-25T07:54:16;102376.03;;;20.63
64916;BMP280;51427;-27.442;153.014;2023-04-25T07:56:44;102366.47;;;20.39
64916;BMP280;51427;-27.442;153.014;2023-04-25T07:59:12;102346.50;;;20.46
64916;BMP280;51427;-27.442;153.014;2023-04-25T08:01:39;102347.81;;;20.38
64916;BMP280;51427;-27.442;153.014;2023-04-25T08:04:07;102342.56;;;20.41
64916;BMP280;51427;-27.442;153.014;2023-04-25T08:06:35;102355.22;;;20.56
64916;BMP280;51427;-27.442;153.014;2023-04-25T08:09:02;102360.25;;;20.72
64916;BMP280;51427;-27.442;153.014;2023-04-25T08:11:30;102354.31;;;20.57
64916;BMP280;51427;-27.442;153.014;2023-04-25T08:13:58;102357.03;;;20.54
64916;BMP280;51427;-27.442;153.014;2023-04-25T08:16:26;102362.47;;;20.48
64916;BMP280;51427;-27.442;153.014;2023-04-25T08:18:53;102364.84;;;20.51
64916;BMP280;51427;-27.442;153.014;2023-04-25T08:21:21;102359.63;;;20.39
64916;BMP280;51427;-27.442;153.014;2023-04-25T08:23:48;102371.19;;;20.44
64916;BMP280;51427;-27.442;153.014;2023-04-25T08:26:16;102361.91;;;20.43
64916;BMP280;51427;-27.442;153.014;2023-04-25T08:28:44;102368.19;;;20.52
64916;BMP280;51427;-27.442;153.014;2023-04-25T08:31:11;102377.84;;;20.61
64916;BMP280;51427;-27.442;153.014;2023-04-25T08:33:39;102375.56;;;20.56
64916;BMP280;51427;-27.442;153.014;2023-04-25T08:36:07;102380.53;;;20.44
64916;BMP280;51427;-27.442;153.014;2023-04-25T08:38:34;102392.22;;;20.33
64916;BMP280;51427;-27.442;153.014;2023-04-25T08:41:03;102386.81;;;20.39
64916;BMP280;51427;-27.442;153.014;2023-04-25T08:43:33;102388.00;;;20.47
64916;BMP280;51427;-27.442;153.014;2023-04-25T08:46:02;102393.00;;;20.48
64916;BMP280;51427;-27.442;153.014;2023-04-25T08:48:33;102393.16;;;20.45
64916;BMP280;51427;-27.442;153.014;2023-04-25T08:51:05;102397.00;;;20.52
64916;BMP280;51427;-27.442;153.014;2023-04-25T08:53:34;102400.31;;;20.39
64916;BMP280;51427;-27.442;153.014;2023-04-25T08:56:02;102399.34;;;20.42
64916;BMP280;51427;-27.442;153.014;2023-04-25T08:58:31;102397.94;;;20.36
64916;BMP280;51427;-27.442;153.014;2023-04-25T09:00:59;102394.25;;;20.12
64916;BMP280;51427;-27.442;153.014;2023-04-25T09:03:27;102391.97;;;20.08
64916;BMP280;51427;-27.442;153.014;2023-04-25T09:05:55;102398.53;;;20.12
64916;BMP280;51427;-27.442;153.014;2023-04-25T09:08:23;102394.38;;;20.25
64916;BMP280;51427;-27.442;153.014;2023-04-25T09:10:51;102392.09;;;20.20
64916;BMP280;51427;-27.442;153.014;2023-04-25T09:13:26;102395.41;;;20.07
64916;BMP280;51427;-27.442;153.014;2023-04-25T09:15:58;102400.09;;;19.99
64916;BMP280;51427;-27.442;153.014;2023-04-25T09:18:33;102393.03;;;20.04
64916;BMP280;51427;-27.442;153.014;2023-04-25T09:21:09;102400.19;;;20.27
64916;BMP280;51427;-27.442;153.014;2023-04-25T09:23:41;102393.84;;;20.20
64916;BMP280;51427;-27.442;153.014;2023-04-25T09:26:09;102392.03;;;20.06
64916;BMP280;51427;-27.442;153.014;2023-04-25T09:28:37;102391.78;;;20.11
64916;BMP280;51427;-27.442;153.014;2023-04-25T09:31:05;102392.78;;;19.93
64916;BMP280;51427;-27.442;153.014;2023-04-25T09:33:33;102386.97;;;19.91
64916;BMP280;51427;-27.442;153.014;2023-04-25T09:36:07;102380.84;;;19.95
64916;BMP280;51427;-27.442;153.014;2023-04-25T09:38:43;102387.56;;;19.81
64916;BMP280;51427;-27.442;153.014;2023-04-25T09:41:12;102387.09;;;20.19
64916;BMP280;51427;-27.442;153.014;2023-04-25T09:43:40;102394.09;;;20.00
64916;BMP280;51427;-27.442;153.014;2023-04-25T09:46:12;102401.41;;;20.06
64916;BMP280;51427;-27.442;153.014;2023-04-25T09:48:40;102403.69;;;20.10
64916;BMP280;51427;-27.442;153.014;2023-04-25T09:51:15;102404.84;;;19.90
64916;BMP280;51427;-27.442;153.014;2023-04-25T09:53:44;102406.41;;;19.92
64916;BMP280;51427;-27.442;153.014;2023-04-25T09:56:22;102399.84;;;19.88
64916;BMP280;51427;-27.442;153.014;2023-04-25T09:58:52;102397.03;;;20.08
64916;BMP280;51427;-27.442;153.014;2023-04-25T10:01:21;102411.72;;;20.03
64916;BMP280;51427;-27.442;153.014;2023-04-25T10:03:50;102411.72;;;20.03
64916;BMP280;51427;-27.442;153.014;2023-04-25T10:06:20;102416.91;;;19.86
64916;BMP280;51427;-27.442;153.014;2023-04-25T10:08:51;102410.97;;;19.55
64916;BMP280;51427;-27.442;153.014;2023-04-25T10:11:23;102412.63;;;19.56
64916;BMP280;51427;-27.442;153.014;2023-04-25T10:13:53;102418.03;;;19.81
64916;BMP280;51427;-27.442;153.014;2023-04-25T10:16:21;102413.44;;;19.56
64916;BMP280;51427;-27.442;153.014;2023-04-25T10:18:50;102413.59;;;19.53
64916;BMP280;51427;-27.442;153.014;2023-04-25T10:21:18;102422.44;;;19.77
64916;BMP280;51427;-27.442;153.014;2023-04-25T10:23:47;102412.72;;;19.70
64916;BMP280;51427;-27.442;153.014;2023-04-25T10:26:16;102416.88;;;19.71
64916;BMP280;51427;-27.442;153.014;2023-04-25T10:29:03;102411.88;;;19.54
64916;BMP280;51427;-27.442;153.014;2023-04-25T10:31:31;102410.81;;;19.58
64916;BMP280;51427;-27.442;153.014;2023-04-25T10:34:02;102415.25;;;19.70
64916;BMP280;51427;-27.442;153.014;2023-04-25T10:36:32;102409.50;;;19.36
64916;BMP280;51427;-27.442;153.014;2023-04-25T10:39:04;102420.22;;;19.41
64916;BMP280;51427;-27.442;153.014;2023-04-25T10:44:21;102411.50;;;19.29
64916;BMP280;51427;-27.442;153.014;2023-04-25T10:46:49;102407.03;;;19.50
64916;BMP280;51427;-27.442;153.014;2023-04-25T10:52:14;102412.44;;;19.44
64916;BMP280;51427;-27.442;153.014;2023-04-25T10:54:46;102412.34;;;19.30
64916;BMP280;51427;-27.442;153.014;2023-04-25T11:00:04;102419.97;;;19.60
64916;BMP280;51427;-27.442;153.014;2023-04-25T11:02:36;102417.44;;;19.30
64916;BMP280;51427;-27.442;153.014;2023-04-25T11:05:04;102422.50;;;19.30
64916;BMP280;51427;-27.442;153.014;2023-04-25T11:07:39;102415.50;;;19.50
64916;BMP280;51427;-27.442;153.014;2023-04-25T11:10:10;102409.31;;;19.39
64916;BMP280;51427;-27.442;153.014;2023-04-25T11:12:37;102404.41;;;19.51
64916;BMP280;51427;-27.442;153.014;2023-04-25T11:15:08;102401.28;;;19.31
64916;BMP280;51427;-27.442;153.014;2023-04-25T11:17:36;102402.97;;;19.62
64916;BMP280;51427;-27.442;153.014;2023-04-25T11:20:07;102403.97;;;19.28
64916;BMP280;51427;-27.442;153.014;2023-04-25T11:22:41;102404.22;;;19.39
64916;BMP280;51427;-27.442;153.014;2023-04-25T11:25:12;102411.50;;;18.97
64916;BMP280;51427;-27.442;153.014;2023-04-25T11:27:57;102396.84;;;19.19
64916;BMP280;51427;-27.442;153.014;2023-04-25T11:30:26;102398.81;;;19.14
64916;BMP280;51427;-27.442;153.014;2023-04-25T11:32:55;102403.56;;;19.20
64916;BMP280;51427;-27.442;153.014;2023-04-25T11:35:23;102416.31;;;19.03
64916;BMP280;51427;-27.442;153.014;2023-04-25T11:37:52;102428.75;;;19.07
64916;BMP280;51427;-27.442;153.014;2023-04-25T11:40:20;102424.41;;;18.93
64916;BMP280;51427;-27.442;153.014;2023-04-25T11:42:48;102422.69;;;18.93
64916;BMP280;51427;-27.442;153.014;2023-04-25T11:45:16;102424.03;;;19.00
64916;BMP280;51427;-27.442;153.014;2023-04-25T11:47:45;102430.00;;;18.99
64916;BMP280;51427;-27.442;153.014;2023-04-25T11:50:13;102437.47;;;18.68
64916;BMP280;51427;-27.442;153.014;2023-04-25T11:52:46;102439.25;;;18.33
64916;BMP280;51427;-27.442;153.014;2023-04-25T11:55:18;102416.38;;;18.68
64916;BMP280;51427;-27.442;153.014;2023-04-25T11:57:48;102405.72;;;18.45
64916;BMP280;51427;-27.442;153.014;2023-04-25T12:00:20;102402.41;;;18.93
64916;BMP280;51427;-27.442;153.014;2023-04-25T12:02:53;102386.50;;;19.07
64916;BMP280;51427;-27.442;153.014;2023-04-25T12:05:25;102396.59;;;18.91
64916;BMP280;51427;-27.442;153.014;2023-04-25T12:07:53;102399.72;;;18.62
64916;BMP280;51427;-27.442;153.014;2023-04-25T12:10:21;102394.22;;;18.71
64916;BMP280;51427;-27.442;153.014;2023-04-25T12:12:49;102390.66;;;18.59
64916;BMP280;51427;-27.442;153.014;2023-04-25T12:15:19;102400.88;;;18.74
64916;BMP280;51427;-27.442;153.014;2023-04-25T12:17:52;102400.72;;;18.60
64916;BMP280;51427;-27.442;153.014;2023-04-25T12:20:23;102401.25;;;18.66
64916;BMP280;51427;-27.442;153.014;2023-04-25T12:22:53;102399.59;;;18.65
64916;BMP280;51427;-27.442;153.014;2023-04-25T12:25:42;102394.75;;;18.61
64916;BMP280;51427;-27.442;153.014;2023-04-25T12:28:15;102383.94;;;18.74
64916;BMP280;51427;-27.442;153.014;2023-04-25T12:33:25;102383.31;;;18.86
64916;BMP280;51427;-27.442;153.014;2023-04-25T12:35:54;102391.59;;;18.90
64916;BMP280;51427;-27.442;153.014;2023-04-25T12:38:27;102389.34;;;18.84
64916;BMP280;51427;-27.442;153.014;2023-04-25T12:40:57;102372.03;;;18.92
64916;BMP280;51427;-27.442;153.014;2023-04-25T12:43:25;102380.03;;;19.01
64916;BMP280;51427;-27.442;153.014;2023-04-25T12:45:53;102365.47;;;19.05
64916;BMP280;51427;-27.442;153.014;2023-04-25T12:48:22;102373.09;;;19.05
64916;BMP280;51427;-27.442;153.014;2023-04-25T12:50:50;102363.38;;;18.96
64916;BMP280;51427;-27.442;153.014;2023-04-25T12:53:22;102361.38;;;18.85
64916;BMP280;51427;-27.442;153.014;2023-04-25T12:55:53;102372.13;;;18.73
64916;BMP280;51427;-27.442;153.014;2023-04-25T12:58:20;102358.09;;;18.83
64916;BMP280;51427;-27.442;153.014;2023-04-25T13:00:48;102369.88;;;18.84
64916;BMP280;51427;-27.442;153.014;2023-04-25T13:03:16;102366.56;;;18.99
64916;BMP280;51427;-27.442;153.014;2023-04-25T13:05:44;102362.91;;;18.56
64916;BMP280;51427;-27.442;153.014;2023-04-25T13:08:12;102358.09;;;18.83
64916;BMP280;51427;-27.442;153.014;2023-04-25T13:10:39;102352.22;;;18.98
64916;BMP280;51427;-27.442;153.014;2023-04-25T13:13:07;102342.41;;;18.92
64916;BMP280;51427;-27.442;153.014;2023-04-25T13:15:35;102342.41;;;18.92
64916;BMP280;51427;-27.442;153.014;2023-04-25T13:18:04;102341.38;;;18.79
64916;BMP280;51427;-27.442;153.014;2023-04-25T13:20:35;102344.19;;;18.90
64916;BMP280;51427;-27.442;153.014;2023-04-25T13:23:02;102355.44;;;18.69
64916;BMP280;51427;-27.442;153.014;2023-04-25T13:25:30;102364.94;;;18.66
64916;BMP280;51427;-27.442;153.014;2023-04-25T13:27:58;102360.31;;;18.57
64916;BMP280;51427;-27.442;153.014;2023-04-25T13:30:25;102347.97;;;18.83
64916;BMP280;51427;-27.442;153.014;2023-04-25T13:32:54;102350.78;;;18.94
64916;BMP280;51427;-27.442;153.014;2023-04-25T13:35:23;102361.88;;;18.60
64916;BMP280;51427;-27.442;153.014;2023-04-25T13:37:51;102360.69;;;18.50
64916;BMP280;51427;-27.442;153.014;2023-04-25T13:40:19;102345.19;;;18.88